createdAt,value
2022-10-09T00:01:32.013Z,99044.00
2022-10-09T00:03:59.333Z,99054.50
2022-10-09T00:06:31.817Z,99061.59
2022-10-09T00:09:01.807Z,99056.31
2022-10-09T00:11:29.627Z,99056.31
2022-10-09T00:13:56.814Z,99055.47
2022-10-09T00:16:24.804Z,99062.56
2022-10-09T00:18:52.530Z,99071.38
2022-10-09T00:21:24.567Z,99077.50
2022-10-09T00:23:51.921Z,99088.09
2022-10-09T00:26:18.883Z,99088.97
2022-10-09T00:28:46.640Z,99089.91
2022-10-09T00:31:14.511Z,99089.06
2022-10-09T00:33:41.213Z,99081.09
2022-10-09T00:36:28.112Z,99082.81
2022-10-09T00:38:55.221Z,99073.59
2022-10-09T00:41:28.629Z,99079.31
2022-10-09T00:44:00.745Z,99078.44
2022-10-09T00:46:27.303Z,99090.88
2022-10-09T00:49:02.407Z,99092.69
2022-10-09T00:51:31.525Z,99105.06
2022-10-09T00:53:59.560Z,99099.78
2022-10-09T00:56:26.419Z,99102.53
2022-10-09T00:58:56.253Z,99105.06
2022-10-09T01:01:23.001Z,99110.50
2022-10-09T01:03:49.757Z,99065.53
2022-10-09T01:06:29.638Z,99107.00
2022-10-09T01:09:07.221Z,99106.13
2022-10-09T01:11:42.388Z,99109.66
2022-10-09T01:14:27.761Z,99110.59
2022-10-09T01:17:40.560Z,99120.34
2022-10-09T01:20:26.875Z,99130.94
2022-10-09T01:23:02.792Z,99117.81
2022-10-09T01:25:36.195Z,99124.81
2022-10-09T01:28:06.633Z,99124.81
2022-10-09T01:30:35.238Z,99124.81
2022-10-09T01:33:02.998Z,99124.06
2022-10-09T01:35:30.855Z,99138.06
2022-10-09T01:37:58.643Z,99139.00
2022-10-09T01:40:26.606Z,99143.63
2022-10-09T01:42:53.449Z,99148.66
2022-10-09T01:45:19.999Z,99159.38
2022-10-09T01:47:46.648Z,99156.72
2022-10-09T01:50:22.792Z,99170.81
2022-10-09T01:52:56.028Z,99164.66
2022-10-09T01:55:31.753Z,99161.16
2022-10-09T01:58:07.487Z,99170.06
2022-10-09T02:00:37.696Z,99169.97
2022-10-09T02:03:08.835Z,99169.19
2022-10-09T02:05:37.091Z,99153.81
2022-10-09T02:08:04.322Z,99166.53
2022-10-09T02:10:34.648Z,99174.47
2022-10-09T02:13:01.811Z,99185.09
2022-10-09T02:15:34.730Z,99182.44
2022-10-09T02:18:11.128Z,99179.91
2022-10-09T02:20:42.032Z,99191.34
2022-10-09T02:23:10.273Z,99183.50
2022-10-09T02:25:38.834Z,99186.03
2022-10-09T02:28:06.988Z,99186.97
2022-10-09T02:30:50.173Z,99195.81
2022-10-09T02:33:16.778Z,99199.41
2022-10-09T02:35:43.878Z,99201.09
2022-10-09T02:38:10.465Z,99196.94
2022-10-09T02:40:36.972Z,99214.34
2022-10-09T02:43:03.537Z,99207.34
2022-10-09T02:45:30.047Z,99202.03
2022-10-09T02:47:56.691Z,99211.78
2022-10-09T02:50:23.182Z,99212.75
2022-10-09T02:52:50.100Z,99218.91
2022-10-09T02:55:16.911Z,99219.84
2022-10-09T02:57:43.447Z,99223.34
2022-10-09T03:00:10.592Z,99226.09
2022-10-09T03:02:37.313Z,99229.59
2022-10-09T03:05:04.104Z,99237.56
2022-10-09T03:07:30.809Z,99241.03
2022-10-09T03:09:58.348Z,99244.63
2022-10-09T03:12:24.905Z,99246.44
2022-10-09T03:14:51.384Z,99250.03
2022-10-09T03:17:18.029Z,99257.16
2022-10-09T03:19:44.551Z,99250.16
2022-10-09T03:22:11.120Z,99245.16
2022-10-09T03:24:37.653Z,99251.94
2022-10-09T03:27:04.305Z,99256.41
2022-10-09T03:29:30.990Z,99258.22
2022-10-09T03:31:57.636Z,99263.53
2022-10-09T03:34:24.171Z,99255.56
2022-10-09T03:36:50.745Z,99258.22
2022-10-09T03:39:17.327Z,99267.00
2022-10-09T03:41:43.875Z,99260.00
2022-10-09T03:44:10.364Z,99260.09
2022-10-09T03:46:36.993Z,99268.91
2022-10-09T03:49:03.569Z,99274.19
2022-10-09T03:51:30.124Z,99270.72
2022-10-09T03:53:56.736Z,99268.91
2022-10-09T03:56:23.344Z,99276.84
2022-10-09T03:58:49.834Z,99284.91
2022-10-09T04:01:16.507Z,99289.38
2022-10-09T04:03:43.042Z,99287.66
2022-10-09T04:06:09.683Z,99282.38
2022-10-09T04:08:36.271Z,99286.78
2022-10-09T04:11:03.496Z,99289.44
2022-10-09T04:13:30.074Z,99285.31
2022-10-09T04:15:56.827Z,99293.91
2022-10-09T04:18:23.808Z,99287.75
2022-10-09T04:20:52.021Z,99295.69
2022-10-09T04:23:19.801Z,99296.66
2022-10-09T04:25:46.532Z,99308.22
2022-10-09T04:28:13.527Z,99305.66
2022-10-09T04:30:40.227Z,99303.75
2022-10-09T04:33:11.795Z,99310.00
2022-10-09T04:35:47.001Z,99318.91
2022-10-09T04:38:13.569Z,99300.03
2022-10-09T04:40:40.166Z,99319.88
2022-10-09T04:43:06.760Z,99319.88
2022-10-09T04:45:33.435Z,99331.28
2022-10-09T04:48:00.000Z,99315.03
2022-10-09T04:50:26.523Z,99330.47
2022-10-09T04:52:59.056Z,99331.41
2022-10-09T04:55:25.806Z,99339.34
2022-10-09T04:57:52.332Z,99336.69
2022-10-09T05:00:19.008Z,99345.47
2022-10-09T05:02:45.564Z,99345.59
2022-10-09T05:05:12.219Z,99348.25
2022-10-09T05:07:38.697Z,99347.31
2022-10-09T05:10:06.495Z,99339.47
2022-10-09T05:12:33.061Z,99338.16
2022-10-09T05:14:59.589Z,99350.88
2022-10-09T05:17:26.176Z,99358.00
2022-10-09T05:19:52.917Z,99343.34
2022-10-09T05:22:19.426Z,99361.50
2022-10-09T05:24:45.941Z,99363.31
2022-10-09T05:27:12.473Z,99358.00
2022-10-09T05:29:39.017Z,99362.31
2022-10-09T05:32:05.632Z,99367.63
2022-10-09T05:34:33.985Z,99379.19
2022-10-09T05:37:00.491Z,99372.19
2022-10-09T05:39:30.371Z,99380.31
2022-10-09T05:41:56.910Z,99388.09
2022-10-09T05:44:23.559Z,99390.75
2022-10-09T05:46:50.119Z,99354.47
2022-10-09T05:49:16.721Z,99395.94
2022-10-09T05:51:43.277Z,99403.88
2022-10-09T05:54:13.981Z,99406.53
2022-10-09T05:56:40.749Z,99402.16
2022-10-09T05:59:14.775Z,99408.34
2022-10-09T06:01:51.644Z,99415.41
2022-10-09T06:04:22.937Z,99416.28
2022-10-09T06:06:50.031Z,99421.59
2022-10-09T06:09:18.625Z,99420.72
2022-10-09T06:11:45.596Z,99432.19
2022-10-09T06:14:13.336Z,99447.09
2022-10-09T06:16:43.309Z,99441.81
2022-10-09T06:19:15.315Z,99448.91
2022-10-09T06:21:42.532Z,99449.75
2022-10-09T06:24:16.781Z,99452.41
2022-10-09T06:29:03.237Z,99463.88
2022-10-09T06:31:32.511Z,99462.16
2022-10-09T06:34:03.230Z,99465.56
2022-10-09T06:36:32.919Z,99470.88
2022-10-09T06:39:01.027Z,99468.28
2022-10-09T06:41:29.449Z,99472.66
2022-10-09T06:44:16.622Z,99476.16
2022-10-09T06:46:45.105Z,99477.00
2022-10-09T06:49:12.431Z,99484.00
2022-10-09T06:51:39.191Z,99484.97
2022-10-09T06:54:11.385Z,99484.19
2022-10-09T06:56:38.067Z,99473.59
2022-10-09T06:59:06.350Z,99492.81
2022-10-09T07:01:33.543Z,99498.97
2022-10-09T07:04:07.002Z,99494.50
2022-10-09T07:06:37.268Z,99490.06
2022-10-09T07:09:08.453Z,99498.03
2022-10-09T07:11:40.940Z,99493.56
2022-10-09T07:14:08.947Z,99496.22
2022-10-09T07:16:40.871Z,99498.09
2022-10-09T07:19:10.990Z,99502.34
2022-10-09T07:21:39.322Z,99504.94
2022-10-09T07:24:06.977Z,99493.66
2022-10-09T07:26:36.332Z,99497.81
2022-10-09T07:29:05.305Z,99507.47
2022-10-09T07:31:31.811Z,99509.28
2022-10-09T07:33:58.795Z,99523.38
2022-10-09T07:36:25.468Z,99519.78
2022-10-09T07:38:54.180Z,99518.91
2022-10-09T07:41:22.912Z,99517.97
2022-10-09T07:43:49.973Z,99509.66
2022-10-09T07:46:18.798Z,99520.63
2022-10-09T07:48:45.916Z,99506.03
2022-10-09T07:51:12.421Z,99530.28
2022-10-09T07:53:39.009Z,99529.34
2022-10-09T07:56:06.059Z,99524.03
2022-10-09T07:58:32.793Z,99521.28
2022-10-09T08:01:09.883Z,99521.28
2022-10-09T08:03:37.342Z,99533.59
2022-10-09T08:06:04.040Z,99524.78
2022-10-09T08:08:30.651Z,99525.63
2022-10-09T08:10:57.200Z,99526.47
2022-10-09T08:13:23.769Z,99530.00
2022-10-09T08:15:50.435Z,99536.13
2022-10-09T08:18:17.063Z,99535.19
2022-10-09T08:20:43.576Z,99537.84
2022-10-09T08:23:10.312Z,99543.03
2022-10-09T08:25:37.397Z,99534.25
2022-10-09T08:28:04.954Z,99532.94
2022-10-09T08:30:31.550Z,99543.03
2022-10-09T08:32:58.140Z,99501.44
2022-10-09T08:35:24.700Z,99553.56
2022-10-09T08:37:51.340Z,99549.09
2022-10-09T08:40:27.727Z,99551.75
2022-10-09T08:43:03.595Z,99551.75
2022-10-09T08:45:32.137Z,99558.75
2022-10-09T08:48:10.940Z,99559.69
2022-10-09T08:50:41.242Z,99546.72
2022-10-09T08:53:23.967Z,99564.00
2022-10-09T08:55:56.520Z,99556.03
2022-10-09T08:58:27.709Z,99564.88
2022-10-09T09:01:16.887Z,99561.34
2022-10-09T09:03:52.658Z,99570.16
2022-10-09T09:06:31.577Z,99569.28
2022-10-09T09:09:16.727Z,99566.63
2022-10-09T09:12:26.659Z,99567.50
2022-10-09T09:15:13.140Z,99557.16
2022-10-09T09:18:02.638Z,99561.34
2022-10-09T09:20:50.673Z,99556.91
2022-10-09T09:23:17.349Z,99563.88
2022-10-09T09:25:45.952Z,99526.78
2022-10-09T09:28:20.148Z,99557.63
2022-10-09T09:31:01.734Z,99555.94
2022-10-09T09:33:44.574Z,99566.47
2022-10-09T09:36:17.447Z,99555.00
2022-10-09T09:39:24.896Z,99559.34
2022-10-09T09:41:30.619Z,99564.66
2022-10-09T09:43:57.221Z,99568.06
2022-10-09T09:46:27.250Z,99568.06
2022-10-09T09:48:54.364Z,99569.78
2022-10-09T09:51:32.802Z,99569.78
2022-10-09T09:54:06.160Z,99566.16
2022-10-09T09:56:59.624Z,99563.50
2022-10-09T09:59:37.458Z,99569.66
2022-10-09T10:02:14.739Z,99568.72
2022-10-09T10:05:20.604Z,99562.47
2022-10-09T10:07:50.035Z,99559.91
2022-10-09T10:10:25.600Z,99556.31
2022-10-09T10:12:54.734Z,99566.91
2022-10-09T10:15:25.777Z,99551.88
2022-10-09T10:18:09.521Z,99551.78
2022-10-09T10:20:46.257Z,99552.63
2022-10-09T10:23:36.653Z,99547.31
2022-10-09T10:26:09.859Z,99547.31
2022-10-09T10:31:17.538Z,99551.00
2022-10-09T10:33:54.218Z,99546.66
2022-10-09T10:36:20.844Z,99534.34
2022-10-09T10:38:55.335Z,99548.91
2022-10-09T10:41:37.578Z,99540.41
2022-10-09T10:44:07.843Z,99549.69
2022-10-09T10:46:49.677Z,99546.09
2022-10-09T10:49:23.115Z,99546.91
2022-10-09T10:51:53.915Z,99548.63
2022-10-09T10:54:36.243Z,99550.34
2022-10-09T10:57:18.678Z,99546.81
2022-10-09T11:00:06.241Z,99552.13
2022-10-09T11:03:06.345Z,99549.41
2022-10-09T11:05:49.065Z,99553.00
2022-10-09T11:08:34.152Z,99509.56
2022-10-09T11:11:29.546Z,99546.75
2022-10-09T11:14:03.560Z,99547.56
2022-10-09T11:16:38.784Z,99543.31
2022-10-09T11:19:45.514Z,99542.28
2022-10-09T11:22:40.170Z,99547.56
2022-10-09T11:25:14.581Z,99541.44
2022-10-09T11:27:55.459Z,99539.63
2022-10-09T11:30:22.268Z,99539.63
2022-10-09T11:33:01.021Z,99537.84
2022-10-09T11:35:37.556Z,99537.84
2022-10-09T11:38:12.697Z,99537.84
2022-10-09T11:40:43.462Z,99538.69
2022-10-09T11:43:20.393Z,99537.84
2022-10-09T11:46:13.683Z,99531.56
2022-10-09T11:49:16.399Z,99528.91
2022-10-09T11:52:09.207Z,99521.84
2022-10-09T11:54:35.921Z,99525.31
2022-10-09T11:57:06.317Z,99515.59
2022-10-09T11:59:36.568Z,99512.94
2022-10-09T12:02:25.024Z,99510.28
2022-10-09T12:04:55.267Z,99518.13
2022-10-09T12:07:32.073Z,99517.28
2022-10-09T12:10:23.405Z,99511.13
2022-10-09T12:13:03.377Z,99507.53
2022-10-09T12:15:53.395Z,99503.06
2022-10-09T12:18:33.511Z,99496.25
2022-10-09T12:21:05.148Z,99491.78
2022-10-09T12:23:36.092Z,99499.47
2022-10-09T12:26:03.749Z,99495.09
2022-10-09T12:28:40.292Z,99503.81
2022-10-09T12:31:23.430Z,99492.38
2022-10-09T12:33:57.812Z,99494.91
2022-10-09T12:36:27.679Z,99494.91
2022-10-09T12:38:54.269Z,99496.69
2022-10-09T12:41:32.328Z,99500.22
2022-10-09T12:43:59.366Z,99499.34
2022-10-09T12:46:37.475Z,99490.56
2022-10-09T12:49:14.861Z,99492.25
2022-10-09T12:51:41.490Z,99495.03
2022-10-09T12:54:09.849Z,99502.00
2022-10-09T12:56:38.563Z,99500.34
2022-10-09T12:59:07.017Z,99492.38
2022-10-09T13:01:35.042Z,99507.31
2022-10-09T13:04:05.222Z,99502.00
2022-10-09T13:06:42.996Z,99502.88
2022-10-09T13:09:21.076Z,99490.78
2022-10-09T13:11:55.874Z,99483.94
2022-10-09T13:14:33.183Z,99500.22
2022-10-09T13:17:00.814Z,99503.72
2022-10-09T13:19:29.225Z,99492.25
2022-10-09T13:22:04.540Z,99493.22
2022-10-09T13:24:31.144Z,99495.03
2022-10-09T13:26:57.650Z,99498.63
2022-10-09T13:29:24.299Z,99487.47
2022-10-09T13:31:50.785Z,99501.66
2022-10-09T13:34:18.813Z,99491.25
2022-10-09T13:36:45.443Z,99493.16
2022-10-09T13:39:16.112Z,99498.66
2022-10-09T13:41:44.699Z,99489.09
2022-10-09T13:44:11.380Z,99490.25
2022-10-09T13:46:37.925Z,99490.34
2022-10-09T13:49:04.456Z,99489.69
2022-10-09T13:51:32.037Z,99469.97
2022-10-09T13:53:58.575Z,99488.06
2022-10-09T13:56:26.068Z,99478.50
2022-10-09T13:58:53.156Z,99475.94
2022-10-09T14:01:19.859Z,99480.47
2022-10-09T14:03:46.496Z,99475.28
2022-10-09T14:06:13.072Z,99478.03
2022-10-09T14:08:39.604Z,99471.97
2022-10-09T14:15:47.638Z,99472.84
2022-10-09T14:18:14.770Z,99479.81
2022-10-09T14:20:41.346Z,99477.16
2022-10-09T14:23:09.214Z,99474.53
2022-10-09T14:25:35.790Z,99483.34
2022-10-09T14:28:02.478Z,99459.22
2022-10-09T14:30:29.105Z,99477.16
2022-10-09T14:32:55.871Z,99472.75
2022-10-09T14:35:22.382Z,99477.94
2022-10-09T14:37:49.219Z,99476.13
2022-10-09T14:40:15.784Z,99461.59
2022-10-09T14:42:42.415Z,99469.16
2022-10-09T14:45:09.707Z,99475.28
2022-10-09T14:47:36.366Z,99471.81
2022-10-09T14:50:03.541Z,99469.97
2022-10-09T14:52:32.823Z,99466.50
2022-10-09T14:54:59.380Z,99467.34
2022-10-09T14:57:26.000Z,99463.75
2022-10-09T14:59:53.039Z,99461.09
2022-10-09T15:02:19.632Z,99457.56
2022-10-09T15:04:46.117Z,99453.13
2022-10-09T15:07:12.779Z,99450.59
2022-10-09T15:09:39.273Z,99451.34
2022-10-09T15:12:05.861Z,99450.50
2022-10-09T15:14:32.486Z,99446.97
2022-10-09T15:16:59.057Z,99453.97
2022-10-09T15:19:25.596Z,99448.78
2022-10-09T15:21:52.157Z,99451.34
2022-10-09T15:24:18.748Z,99447.84
2022-10-09T15:26:45.280Z,99446.97
2022-10-09T15:29:14.572Z,99452.28
2022-10-09T15:31:41.957Z,99454.09
2022-10-09T15:34:10.051Z,99459.38
2022-10-09T15:36:39.838Z,99453.13
2022-10-09T15:39:08.732Z,99455.91
2022-10-09T15:41:37.436Z,99449.63
2022-10-09T15:44:06.700Z,99444.81
2022-10-09T15:46:34.063Z,99447.94
2022-10-09T15:49:00.560Z,99449.72
2022-10-09T15:51:28.252Z,99448.91
2022-10-09T15:53:56.063Z,99455.97
2022-10-09T15:56:24.557Z,99457.69
2022-10-09T15:58:52.823Z,99454.31
2022-10-09T16:01:19.891Z,99454.31
2022-10-09T16:03:46.980Z,99455.13
2022-10-09T16:06:16.671Z,99455.25
2022-10-09T16:08:43.605Z,99462.25
2022-10-09T16:11:12.862Z,99456.09
2022-10-09T16:13:42.055Z,99457.13
2022-10-09T16:16:13.548Z,99460.63
2022-10-09T16:18:40.172Z,99469.44
2022-10-09T16:21:09.234Z,99471.22
2022-10-09T16:23:36.487Z,99449.75
2022-10-09T16:26:04.181Z,99473.97
2022-10-09T16:28:31.689Z,99473.97
2022-10-09T16:30:58.292Z,99467.47
2022-10-09T16:33:25.074Z,99473.13
2022-10-09T16:35:51.852Z,99468.22
2022-10-09T16:38:18.585Z,99479.38
2022-10-09T16:41:01.281Z,99482.97
2022-10-09T16:43:28.865Z,99486.56
2022-10-09T16:45:55.406Z,99491.03
2022-10-09T16:48:21.949Z,99479.56
2022-10-09T16:50:48.782Z,99492.81
2022-10-09T16:53:15.503Z,99488.47
2022-10-09T16:55:41.990Z,99484.97
2022-10-09T16:58:13.381Z,99500.00
2022-10-09T17:00:39.995Z,99493.84
2022-10-09T17:03:06.745Z,99499.16
2022-10-09T17:05:38.378Z,99487.34
2022-10-09T17:08:04.957Z,99494.78
2022-10-09T17:10:31.462Z,99506.38
2022-10-09T17:12:58.021Z,99501.13
2022-10-09T17:15:24.507Z,99504.66
2022-10-09T17:17:51.359Z,99504.66
2022-10-09T17:22:38.513Z,99513.53
2022-10-09T17:25:05.662Z,99511.84
2022-10-09T17:27:32.698Z,99507.47
2022-10-09T17:29:59.307Z,99514.59
2022-10-09T17:32:25.837Z,99509.28
2022-10-09T17:34:52.403Z,99517.25
2022-10-09T17:37:18.951Z,99516.38
2022-10-09T17:39:49.725Z,99520.00
2022-10-09T17:42:18.551Z,99515.53
2022-10-09T17:44:45.113Z,99511.16
2022-10-09T17:47:12.809Z,99522.63
2022-10-09T17:49:39.312Z,99520.94
2022-10-09T17:52:05.960Z,99522.72
2022-10-09T17:54:33.180Z,99521.88
2022-10-09T17:57:01.239Z,99522.81
2022-10-09T17:59:28.026Z,99519.31
2022-10-09T18:01:54.709Z,99531.69
2022-10-09T18:04:21.329Z,99535.22
2022-10-09T18:06:47.950Z,99522.91
2022-10-09T18:09:14.476Z,99524.69
2022-10-09T18:11:41.154Z,99525.56
2022-10-09T18:14:07.844Z,99513.75
2022-10-09T18:16:37.799Z,99531.81
2022-10-09T18:19:15.751Z,99530.97
2022-10-09T18:21:47.931Z,99535.38
2022-10-09T18:24:15.780Z,99531.03
2022-10-09T18:26:42.768Z,99529.25
2022-10-09T18:31:34.317Z,99545.22
2022-10-09T18:34:01.424Z,99539.91
2022-10-09T18:36:34.427Z,99540.91
2022-10-09T18:39:07.952Z,99545.31
2022-10-09T18:43:48.573Z,99549.88
2022-10-09T18:46:17.562Z,99550.72
2022-10-09T18:48:45.254Z,99555.19
2022-10-09T18:51:19.029Z,99553.47
2022-10-09T18:53:48.463Z,99549.00
2022-10-09T18:56:19.527Z,99556.97
2022-10-09T18:58:48.532Z,99557.91
2022-10-09T19:01:18.208Z,99557.91
2022-10-09T19:06:07.121Z,99562.34
2022-10-09T19:08:34.308Z,99561.47
2022-10-09T19:11:01.040Z,99559.72
2022-10-09T19:13:27.882Z,99557.06
2022-10-09T19:15:58.491Z,99557.06
2022-10-09T19:18:30.519Z,99535.69
2022-10-09T19:20:57.220Z,99556.28
2022-10-09T19:23:23.843Z,99561.59
2022-10-09T19:25:54.257Z,99554.59
2022-10-09T19:28:23.107Z,99558.09
2022-10-09T19:30:50.179Z,99561.69
2022-10-09T19:33:17.740Z,99564.34
2022-10-09T19:35:49.607Z,99550.69
2022-10-09T19:38:19.444Z,99551.75
2022-10-09T19:40:46.241Z,99567.09
2022-10-09T19:43:15.183Z,99561.78
2022-10-09T19:45:42.197Z,99565.38
2022-10-09T19:48:09.056Z,99560.91
2022-10-09T19:50:41.417Z,99561.84
2022-10-09T19:53:07.949Z,99556.56
2022-10-09T19:55:35.439Z,99555.72
2022-10-09T19:58:05.032Z,99555.72
2022-10-09T20:00:31.852Z,99559.31
2022-10-09T20:02:58.649Z,99557.53
2022-10-09T20:05:25.243Z,99562.91
2022-10-09T20:07:51.851Z,99560.25
2022-10-09T20:10:18.568Z,99556.75
2022-10-09T20:12:49.716Z,99572.66
2022-10-09T20:15:16.669Z,99568.28
2022-10-09T20:17:43.267Z,99567.47
2022-10-09T20:20:10.552Z,99563.78
2022-10-09T20:22:37.225Z,99565.53
2022-10-09T20:25:04.381Z,99562.91
2022-10-09T20:27:31.553Z,99562.06
2022-10-09T20:29:58.201Z,99569.13
2022-10-09T20:32:25.438Z,99549.34
2022-10-09T20:34:52.225Z,99558.63
2022-10-09T20:37:18.789Z,99556.00
2022-10-09T20:39:47.783Z,99558.63
2022-10-09T20:42:14.393Z,99550.22
2022-10-09T20:44:42.352Z,99556.94
2022-10-09T20:47:11.552Z,99561.28
2022-10-09T20:49:38.145Z,99556.00
2022-10-09T20:52:04.762Z,99553.44
2022-10-09T20:54:31.364Z,99556.00
2022-10-09T20:56:58.104Z,99549.84
2022-10-09T20:59:24.673Z,99554.28
2022-10-09T21:01:51.191Z,99561.28
2022-10-09T21:04:17.835Z,99556.94
2022-10-09T21:06:44.425Z,99560.44
2022-10-09T21:09:11.036Z,99559.50
2022-10-09T21:11:39.076Z,99562.16
2022-10-09T21:16:36.534Z,99540.75
2022-10-09T21:19:04.666Z,99554.97
2022-10-09T21:21:32.232Z,99556.19
2022-10-09T21:24:00.010Z,99571.72
2022-10-09T21:26:27.869Z,99562.91
2022-10-09T21:28:59.305Z,99564.59
2022-10-09T21:31:29.034Z,99561.03
2022-10-09T21:33:56.492Z,99563.78
2022-10-09T21:37:08.909Z,99562.84
2022-10-09T21:39:33.055Z,99561.03
2022-10-09T21:41:59.649Z,99554.00
2022-10-09T21:44:26.287Z,99558.47
2022-10-09T21:46:52.780Z,99555.81
2022-10-09T21:49:24.771Z,99556.75
2022-10-09T21:51:51.744Z,99553.25
2022-10-09T21:54:18.356Z,99556.75
2022-10-09T21:56:45.038Z,99572.66
2022-10-09T21:59:12.321Z,99577.06
2022-10-09T22:04:03.341Z,99568.28
2022-10-09T22:06:30.208Z,99557.91
2022-10-09T22:08:59.020Z,99564.03
2022-10-09T22:11:25.608Z,99568.41
2022-10-09T22:13:52.144Z,99563.94
2022-10-09T22:16:18.794Z,99568.41
2022-10-09T22:18:45.361Z,99556.94
2022-10-09T22:21:14.397Z,99560.44
2022-10-09T22:34:14.301Z,99558.19
2022-10-09T22:36:41.140Z,99558.19
2022-10-09T22:39:08.114Z,99548.63
2022-10-09T22:41:36.060Z,99556.47
2022-10-09T22:44:04.464Z,99547.47
2022-10-09T22:46:33.862Z,99551.84
2022-10-09T22:49:00.877Z,99545.59
2022-10-09T22:51:28.976Z,99545.59
2022-10-09T22:53:56.845Z,99551.75
2022-10-09T22:56:25.823Z,99543.22
2022-10-09T22:58:53.755Z,99549.97
2022-10-09T23:01:25.334Z,99535.66
2022-10-09T23:03:52.133Z,99552.59
2022-10-09T23:06:19.989Z,99552.69
2022-10-09T23:08:47.721Z,99549.09
2022-10-09T23:11:15.649Z,99554.38
2022-10-09T23:13:42.706Z,99550.91
2022-10-09T23:16:11.161Z,99547.38
2022-10-09T23:18:38.309Z,99547.38
2022-10-09T23:21:07.417Z,99548.25
2022-10-09T23:25:53.096Z,99550.91
2022-10-09T23:28:19.629Z,99551.94
2022-10-09T23:30:46.128Z,99556.25
2022-10-09T23:33:12.792Z,99549.28
2022-10-09T23:35:42.825Z,99549.28
2022-10-09T23:38:12.475Z,99536.50
2022-10-09T23:40:39.204Z,99545.78
2022-10-09T23:43:05.784Z,99552.78
2022-10-09T23:45:32.257Z,99549.28
2022-10-09T23:47:58.819Z,99546.72
2022-10-09T23:50:25.400Z,99539.75
2022-10-09T23:52:52.404Z,99535.47
2022-10-09T23:55:19.080Z,99530.00
2022-10-09T23:57:45.621Z,99524.69
